createdAt,value
2019-02-21T00:00:37.440Z,7.70
2019-02-21T00:03:06.028Z,8.13
2019-02-21T00:05:34.849Z,7.15
2019-02-21T00:08:03.421Z,8.83
2019-02-21T00:10:32.497Z,7.70
2019-02-21T00:13:02.052Z,8.30
2019-02-21T00:15:31.216Z,7.93
2019-02-21T00:18:00.400Z,8.88
2019-02-21T00:20:29.324Z,8.00
2019-02-21T00:22:57.854Z,8.27
2019-02-21T00:25:27.129Z,8.20
2019-02-21T00:27:55.691Z,7.50
2019-02-21T00:30:34.561Z,8.50
2019-02-21T00:32:53.830Z,8.13
2019-02-21T00:35:23.081Z,7.27
2019-02-21T00:37:52.668Z,7.17
2019-02-21T00:40:22.540Z,8.05
2019-02-21T00:42:51.981Z,8.88
2019-02-21T00:45:21.523Z,6.92
2019-02-21T00:47:50.840Z,6.97
2019-02-21T00:50:20.155Z,7.35
2019-02-21T00:52:49.869Z,6.25
2019-02-21T00:55:19.428Z,6.37
2019-02-21T00:57:48.236Z,7.35
2019-02-21T01:00:16.813Z,6.87
2019-02-21T01:02:54.165Z,7.15
2019-02-21T01:05:23.232Z,8.27
2019-02-21T01:07:52.236Z,7.73
2019-02-21T01:10:20.837Z,8.03
2019-02-21T01:12:49.453Z,7.28
2019-02-21T01:15:18.032Z,7.90
2019-02-21T01:17:46.592Z,7.73
2019-02-21T01:20:15.160Z,8.18
2019-02-21T01:22:44.114Z,8.20
2019-02-21T01:25:12.924Z,7.70
2019-02-21T01:27:41.512Z,8.50
2019-02-21T01:30:10.041Z,8.30
2019-02-21T01:32:39.502Z,9.70
2019-02-21T01:35:08.168Z,8.25
2019-02-21T01:37:37.241Z,8.17
2019-02-21T01:40:06.364Z,8.97
2019-02-21T01:42:35.140Z,8.67
2019-02-21T01:45:05.060Z,8.17
2019-02-21T01:47:33.596Z,9.13
2019-02-21T01:50:02.477Z,8.90
2019-02-21T01:52:31.420Z,8.78
2019-02-21T01:55:00.686Z,9.37
2019-02-21T01:57:29.432Z,8.23
2019-02-21T01:59:57.908Z,8.43
2019-02-21T02:02:26.396Z,8.57
2019-02-21T02:04:55.520Z,8.27
2019-02-21T02:07:24.347Z,8.13
2019-02-21T02:09:53.184Z,8.77
2019-02-21T02:12:22.428Z,8.93
2019-02-21T02:14:50.884Z,8.93
2019-02-21T02:17:19.345Z,8.50
2019-02-21T02:19:48.596Z,9.23
2019-02-21T02:22:17.443Z,8.43
2019-02-21T02:24:46.192Z,8.93
2019-02-21T02:27:14.960Z,8.57
2019-02-21T02:29:43.472Z,10.10
2019-02-21T02:32:12.029Z,8.87
2019-02-21T02:34:41.149Z,8.87
2019-02-21T02:37:09.624Z,8.80
2019-02-21T02:39:38.235Z,10.63
2019-02-21T02:42:06.747Z,9.60
2019-02-21T02:44:35.347Z,9.53
2019-02-21T02:47:05.062Z,9.78
2019-02-21T02:49:34.182Z,10.57
2019-02-21T02:52:02.716Z,9.63
2019-02-21T02:54:31.897Z,8.93
2019-02-21T02:57:00.537Z,9.63
2019-02-21T02:59:40.287Z,9.47
2019-02-21T03:01:57.903Z,11.90
2019-02-21T03:04:26.623Z,9.47
2019-02-21T03:06:55.671Z,9.60
2019-02-21T03:09:24.316Z,9.87
2019-02-21T03:11:53.051Z,9.93
2019-02-21T03:14:21.808Z,9.55
2019-02-21T03:16:50.639Z,10.83
2019-02-21T03:19:19.423Z,10.20
2019-02-21T03:21:48.101Z,9.60
2019-02-21T03:24:16.787Z,10.48
2019-02-21T03:26:45.612Z,9.78
2019-02-21T03:30:16.924Z,9.63
2019-02-21T03:32:45.736Z,10.27
2019-02-21T03:35:14.922Z,10.03
2019-02-21T03:37:44.498Z,10.80
2019-02-21T03:40:13.051Z,10.53
2019-02-21T03:42:41.543Z,10.77
2019-02-21T03:45:10.971Z,10.53
2019-02-21T03:47:39.455Z,10.13
2019-02-21T03:50:08.666Z,9.20
2019-02-21T03:52:37.467Z,9.80
2019-02-21T03:55:06.182Z,9.70
2019-02-21T03:57:35.136Z,9.90
2019-02-21T04:00:03.802Z,9.63
2019-02-21T04:02:32.592Z,10.47
2019-02-21T04:05:01.204Z,10.40
2019-02-21T04:07:29.819Z,10.13
2019-02-21T04:09:58.382Z,10.08
2019-02-21T04:12:26.924Z,9.47
2019-02-21T04:14:55.434Z,9.47
2019-02-21T04:17:24.027Z,9.97
2019-02-21T04:19:52.536Z,10.07
2019-02-21T04:22:21.367Z,9.37
2019-02-21T04:24:50.160Z,9.58
2019-02-21T04:27:18.691Z,9.57
2019-02-21T04:29:47.191Z,9.68
2019-02-21T04:32:16.899Z,11.07
2019-02-21T04:34:44.508Z,10.70
2019-02-21T04:37:13.098Z,11.35
2019-02-21T04:39:41.588Z,10.60
2019-02-21T04:42:10.488Z,9.90
2019-02-21T04:44:39.079Z,11.23
2019-02-21T04:47:07.603Z,10.90
2019-02-21T04:49:36.115Z,10.00
2019-02-21T04:52:04.907Z,11.10
2019-02-21T04:54:33.424Z,11.03
2019-02-21T04:57:02.318Z,11.75
2019-02-21T04:59:30.854Z,11.17
2019-02-21T05:01:59.382Z,11.35
2019-02-21T05:04:27.990Z,10.93
2019-02-21T05:06:56.598Z,13.43
2019-02-21T05:09:27.165Z,12.00
2019-02-21T05:11:54.171Z,13.00
2019-02-21T05:14:22.671Z,13.85
2019-02-21T05:16:51.534Z,13.22
2019-02-21T05:19:20.342Z,13.03
2019-02-21T05:21:48.832Z,13.73
2019-02-21T05:24:17.618Z,13.58
2019-02-21T05:26:50.019Z,13.43
2019-02-21T05:29:18.906Z,13.37
2019-02-21T05:31:56.680Z,12.50
2019-02-21T05:34:29.574Z,12.70
2019-02-21T05:39:05.163Z,12.93
2019-02-21T05:41:44.918Z,13.03
2019-02-21T05:44:20.898Z,13.53
2019-02-21T05:46:56.233Z,14.97
2019-02-21T05:49:30.198Z,16.53
2019-02-21T05:52:10.059Z,15.53
2019-02-21T05:54:42.894Z,15.33
2019-02-21T05:57:22.676Z,15.53
2019-02-21T06:00:04.511Z,17.47
2019-02-21T06:02:52.568Z,19.77
2019-02-21T06:05:23.231Z,21.12
2019-02-21T06:10:00.587Z,21.00
2019-02-21T06:12:34.550Z,19.03
2019-02-21T06:15:13.222Z,20.60
2019-02-21T06:17:49.102Z,21.75
2019-02-21T06:20:29.946Z,20.75
2019-02-21T06:23:04.026Z,21.67
2019-02-21T06:25:50.847Z,21.00
2019-02-21T06:28:16.086Z,21.17
2019-02-21T06:30:48.928Z,22.53
2019-02-21T06:33:17.631Z,23.50
2019-02-21T06:35:46.237Z,23.27
2019-02-21T06:38:14.822Z,24.23
2019-02-21T06:40:43.687Z,24.23
2019-02-21T06:43:12.586Z,29.63
2019-02-21T06:45:41.117Z,30.32
2019-02-21T06:48:09.910Z,28.00
2019-02-21T06:50:38.854Z,25.97
2019-02-21T06:53:07.413Z,26.02
2019-02-21T06:55:35.913Z,24.47
2019-02-21T06:58:05.146Z,28.35
2019-02-21T07:00:33.693Z,27.62
2019-02-21T07:03:02.614Z,26.60
2019-02-21T07:05:31.255Z,28.85
2019-02-21T07:07:59.786Z,25.68
2019-02-21T07:10:28.366Z,26.73
2019-02-21T07:12:57.017Z,27.17
2019-02-21T07:15:25.587Z,28.30
2019-02-21T07:17:54.449Z,27.43
2019-02-21T07:20:22.969Z,25.87
2019-02-21T07:22:51.617Z,24.43
2019-02-21T07:25:25.401Z,25.50
2019-02-21T07:27:54.310Z,28.17
2019-02-21T07:30:23.238Z,30.27
2019-02-21T07:32:51.797Z,24.23
2019-02-21T07:35:20.722Z,15.43
2019-02-21T07:37:49.250Z,8.87
2019-02-21T07:40:20.350Z,5.60
2019-02-21T07:42:48.132Z,4.80
2019-02-21T07:45:15.399Z,4.28
2019-02-21T07:47:44.265Z,4.47
2019-02-21T07:50:12.939Z,5.00
2019-02-21T07:52:41.433Z,3.10
2019-02-21T07:55:10.676Z,3.07
2019-02-21T07:57:38.629Z,2.62
2019-02-21T08:00:08.833Z,2.33
2019-02-21T08:02:37.358Z,2.50
2019-02-21T08:05:06.381Z,2.33
2019-02-21T08:07:34.893Z,2.17
2019-02-21T08:10:03.829Z,2.07
2019-02-21T08:12:32.621Z,4.30
2019-02-21T08:15:01.435Z,3.80
2019-02-21T08:17:30.237Z,3.63
2019-02-21T08:20:07.971Z,5.20
2019-02-21T08:22:27.757Z,3.77
2019-02-21T08:24:56.669Z,3.33
2019-02-21T08:27:25.141Z,5.23
2019-02-21T08:29:53.677Z,4.80
2019-02-21T08:32:26.389Z,4.60
2019-02-21T08:34:54.920Z,4.13
2019-02-21T08:37:23.440Z,3.98
2019-02-21T08:39:51.961Z,4.60
2019-02-21T08:42:20.594Z,3.83
2019-02-21T08:44:49.553Z,4.10
2019-02-21T08:47:18.245Z,3.57
2019-02-21T08:49:46.757Z,3.70
2019-02-21T08:52:15.369Z,3.13
2019-02-21T08:54:44.069Z,2.90
2019-02-21T08:57:13.085Z,3.10
2019-02-21T08:59:42.417Z,2.27
2019-02-21T09:02:10.565Z,2.50
2019-02-21T09:04:39.164Z,1.80
2019-02-21T09:07:07.668Z,2.70
2019-02-21T09:09:36.193Z,1.93
2019-02-21T09:12:05.665Z,1.87
2019-02-21T09:14:33.748Z,2.00
2019-02-21T09:17:02.312Z,2.63
2019-02-21T09:19:30.820Z,1.93
2019-02-21T09:21:59.405Z,2.13
2019-02-21T09:24:38.452Z,2.13
2019-02-21T09:26:58.100Z,3.00
2019-02-21T09:29:26.072Z,2.70
2019-02-21T09:31:54.824Z,3.37
2019-02-21T09:34:23.472Z,2.58
2019-02-21T09:36:51.952Z,3.57
2019-02-21T09:39:20.920Z,3.40
2019-02-21T09:41:49.588Z,3.63
2019-02-21T09:44:18.265Z,3.83
2019-02-21T09:46:47.008Z,3.67
2019-02-21T09:49:15.531Z,3.77
2019-02-21T09:51:44.425Z,3.37
2019-02-21T09:54:12.920Z,3.33
2019-02-21T09:56:52.032Z,2.93
2019-02-21T09:59:10.527Z,3.50
2019-02-21T10:01:39.020Z,3.27
2019-02-21T10:04:07.842Z,3.43
2019-02-21T10:06:36.320Z,4.43
2019-02-21T10:09:05.682Z,4.43
2019-02-21T10:11:34.288Z,3.53
2019-02-21T10:14:02.932Z,3.37
2019-02-21T10:16:31.734Z,4.00
2019-02-21T10:19:00.531Z,3.00
2019-02-21T10:21:29.001Z,3.33
2019-02-21T10:23:57.790Z,3.67
2019-02-21T10:26:26.305Z,3.03
2019-02-21T10:28:55.192Z,4.50
2019-02-21T10:31:24.023Z,4.53
2019-02-21T10:33:52.512Z,3.30
2019-02-21T10:36:21.104Z,3.70
2019-02-21T10:38:49.592Z,3.00
2019-02-21T10:41:18.812Z,2.50
2019-02-21T10:43:47.316Z,3.30
2019-02-21T10:46:15.852Z,3.30
2019-02-21T10:48:44.316Z,2.73
2019-02-21T10:51:13.244Z,4.00
2019-02-21T10:53:41.892Z,2.90
2019-02-21T10:56:10.720Z,3.40
2019-02-21T10:58:39.271Z,2.93
2019-02-21T11:01:07.788Z,3.63
2019-02-21T11:03:36.375Z,2.57
2019-02-21T11:06:04.939Z,2.20
2019-02-21T11:08:33.515Z,2.80
2019-02-21T11:11:02.169Z,3.37
2019-02-21T11:13:30.983Z,2.83
2019-02-21T11:15:59.660Z,2.90
2019-02-21T11:18:28.131Z,3.30
2019-02-21T11:20:59.245Z,2.80
2019-02-21T11:23:25.208Z,2.73
2019-02-21T11:25:53.696Z,2.00
2019-02-21T11:28:22.222Z,2.60
2019-02-21T11:30:51.007Z,3.60
2019-02-21T11:33:19.670Z,2.27
2019-02-21T11:35:48.227Z,2.53
2019-02-21T11:38:16.702Z,3.30
2019-02-21T11:40:45.521Z,3.30
2019-02-21T11:43:14.328Z,1.93
2019-02-21T11:45:53.470Z,3.00
2019-02-21T11:48:11.916Z,2.80
2019-02-21T11:50:40.459Z,2.97
2019-02-21T11:53:08.975Z,2.20
2019-02-21T11:55:37.471Z,2.60
2019-02-21T11:58:06.047Z,3.30
2019-02-21T12:00:34.576Z,3.60
2019-02-21T12:03:03.043Z,3.57
2019-02-21T12:05:32.284Z,3.47
2019-02-21T12:08:00.559Z,2.93
2019-02-21T12:10:29.121Z,4.27
2019-02-21T12:12:57.903Z,3.40
2019-02-21T12:15:26.404Z,3.90
2019-02-21T12:17:54.895Z,4.43
2019-02-21T12:20:23.644Z,4.62
2019-02-21T12:22:52.131Z,4.70
2019-02-21T12:25:20.972Z,5.30
2019-02-21T12:27:49.669Z,4.27
2019-02-21T12:30:18.879Z,2.87
2019-02-21T12:32:47.447Z,3.27
2019-02-21T12:35:15.991Z,3.50
2019-02-21T12:37:45.068Z,3.40
2019-02-21T12:40:16.143Z,3.43
2019-02-21T12:42:44.803Z,3.50
2019-02-21T12:45:15.355Z,3.60
2019-02-21T12:47:50.912Z,4.33
2019-02-21T12:50:12.826Z,4.50
2019-02-21T12:52:41.309Z,4.33
2019-02-21T12:55:10.179Z,3.47
2019-02-21T12:57:38.879Z,4.07
2019-02-21T13:00:11.215Z,3.70
2019-02-21T13:02:40.092Z,5.07
2019-02-21T13:05:09.639Z,4.67
2019-02-21T13:07:38.182Z,4.97
2019-02-21T13:10:09.590Z,5.53
2019-02-21T13:12:38.118Z,4.47
2019-02-21T13:15:08.079Z,5.20
2019-02-21T13:17:36.699Z,4.40
2019-02-21T13:20:05.753Z,4.17
2019-02-21T13:22:34.426Z,3.60
2019-02-21T13:25:03.367Z,3.57
2019-02-21T13:27:31.842Z,3.93
2019-02-21T13:30:00.504Z,3.60
2019-02-21T13:32:28.967Z,4.10
2019-02-21T13:34:57.838Z,3.93
2019-02-21T13:37:29.071Z,4.00
2019-02-21T13:39:55.094Z,4.90
2019-02-21T13:42:23.582Z,3.80
2019-02-21T13:44:52.045Z,4.00
2019-02-21T13:47:20.998Z,4.27
2019-02-21T13:49:49.720Z,3.63
2019-02-21T13:52:19.110Z,3.80
2019-02-21T13:54:47.574Z,2.93
2019-02-21T13:57:16.062Z,2.80
2019-02-21T13:59:44.594Z,3.60
2019-02-21T14:02:15.388Z,3.07
2019-02-21T14:04:42.194Z,3.33
2019-02-21T14:07:11.273Z,2.67
2019-02-21T14:09:39.774Z,2.90
2019-02-21T14:12:08.671Z,3.50
2019-02-21T14:14:37.266Z,3.20
2019-02-21T14:17:05.789Z,2.97
2019-02-21T14:19:34.414Z,3.37
2019-02-21T14:22:03.009Z,3.70
2019-02-21T14:24:36.983Z,4.17
2019-02-21T14:27:00.241Z,4.03
2019-02-21T14:29:38.846Z,3.60
2019-02-21T14:31:57.406Z,4.00
2019-02-21T14:34:28.236Z,2.97
2019-02-21T14:36:56.839Z,3.03
2019-02-21T14:39:25.474Z,2.93
2019-02-21T14:41:54.051Z,3.73
2019-02-21T14:44:22.563Z,3.10
2019-02-21T14:46:51.555Z,2.80
2019-02-21T14:49:20.087Z,4.20
2019-02-21T14:51:48.971Z,2.23
2019-02-21T14:54:17.503Z,3.80
2019-02-21T14:56:46.142Z,3.67
2019-02-21T14:59:14.678Z,4.13
2019-02-21T15:01:43.674Z,3.70
2019-02-21T15:04:12.371Z,3.60
2019-02-21T15:06:41.229Z,3.23
2019-02-21T15:09:09.873Z,3.33
2019-02-21T15:11:38.814Z,3.90
2019-02-21T15:14:07.341Z,3.60
2019-02-21T15:16:36.230Z,3.70
2019-02-21T15:19:04.877Z,4.20
2019-02-21T15:21:33.561Z,5.07
2019-02-21T15:24:02.332Z,5.47
2019-02-21T15:26:31.047Z,5.63
2019-02-21T15:29:00.114Z,5.57
2019-02-21T15:31:28.445Z,5.77
2019-02-21T15:33:57.045Z,5.27
2019-02-21T15:36:25.608Z,5.43
2019-02-21T15:38:54.280Z,6.63
2019-02-21T15:41:23.054Z,6.43
2019-02-21T15:43:51.681Z,7.37
2019-02-21T15:46:20.949Z,4.23
2019-02-21T15:48:49.647Z,4.13
2019-02-21T15:51:18.191Z,4.63
2019-02-21T15:53:46.829Z,4.20
2019-02-21T15:56:15.529Z,3.90
2019-02-21T15:58:44.657Z,4.10
2019-02-21T16:01:14.367Z,5.30
2019-02-21T16:03:42.730Z,4.63
2019-02-21T16:06:11.215Z,5.28
2019-02-21T16:08:39.834Z,6.77
2019-02-21T16:11:09.129Z,5.30
2019-02-21T16:13:38.228Z,5.40
2019-02-21T16:16:06.431Z,6.33
2019-02-21T16:18:35.194Z,6.40
2019-02-21T16:21:03.783Z,5.90
2019-02-21T16:23:32.343Z,6.17
2019-02-21T16:26:01.357Z,5.07
2019-02-21T16:28:30.010Z,4.50
2019-02-21T16:30:58.857Z,5.47
2019-02-21T16:33:27.453Z,4.53
2019-02-21T16:35:56.177Z,5.07
2019-02-21T16:38:24.973Z,4.70
2019-02-21T16:40:54.125Z,4.73
2019-02-21T16:43:22.817Z,4.47
2019-02-21T16:45:53.836Z,5.97
2019-02-21T16:48:20.129Z,3.90
2019-02-21T16:50:48.773Z,3.13
2019-02-21T16:53:18.061Z,3.87
2019-02-21T16:55:47.089Z,3.80
2019-02-21T16:58:15.709Z,3.80
2019-02-21T17:00:53.592Z,3.40
2019-02-21T17:03:13.577Z,3.57
2019-02-21T17:05:42.213Z,3.87
2019-02-21T17:08:10.893Z,3.00
2019-02-21T17:10:39.626Z,3.23
2019-02-21T17:13:08.299Z,5.40
2019-02-21T17:15:37.033Z,4.50
2019-02-21T17:18:06.265Z,4.80
2019-02-21T17:20:34.873Z,4.33
2019-02-21T17:23:03.544Z,4.17
2019-02-21T17:25:32.207Z,4.80
2019-02-21T17:28:01.160Z,5.60
2019-02-21T17:30:29.952Z,4.43
2019-02-21T17:32:58.525Z,5.10
2019-02-21T17:35:27.548Z,4.60
2019-02-21T17:37:56.137Z,5.60
2019-02-21T17:40:24.832Z,3.70
2019-02-21T17:42:53.980Z,6.70
2019-02-21T17:45:22.915Z,7.70
2019-02-21T17:47:51.541Z,6.73
2019-02-21T17:50:20.227Z,7.93
2019-02-21T17:52:49.673Z,7.50
2019-02-21T17:55:18.361Z,6.87
2019-02-21T17:57:47.011Z,7.30
2019-02-21T18:00:18.781Z,6.65
2019-02-21T18:02:47.920Z,6.13
2019-02-21T18:05:16.575Z,5.73
2019-02-21T18:07:45.228Z,4.80
2019-02-21T18:10:14.125Z,5.50
2019-02-21T18:12:44.010Z,6.57
2019-02-21T18:15:12.838Z,5.47
2019-02-21T18:17:42.382Z,6.60
2019-02-21T18:20:11.376Z,6.97
2019-02-21T18:22:40.209Z,5.93
2019-02-21T18:25:12.196Z,6.00
2019-02-21T18:27:40.793Z,5.03
2019-02-21T18:30:11.284Z,4.30
2019-02-21T18:32:39.948Z,5.10
2019-02-21T18:35:08.953Z,4.80
2019-02-21T18:37:46.924Z,4.73
2019-02-21T18:40:16.980Z,5.73
2019-02-21T18:42:36.615Z,4.40
2019-02-21T18:45:05.509Z,4.37
2019-02-21T18:47:34.392Z,4.33
2019-02-21T18:50:03.036Z,5.60
2019-02-21T18:52:31.740Z,4.80
2019-02-21T18:55:00.382Z,3.83
2019-02-21T18:57:29.103Z,4.00
2019-02-21T18:59:57.686Z,3.90
2019-02-21T19:02:26.282Z,3.93
2019-02-21T19:04:54.886Z,3.20
2019-02-21T19:07:24.210Z,2.80
2019-02-21T19:09:52.875Z,3.27
2019-02-21T19:12:21.471Z,2.93
2019-02-21T19:14:50.066Z,3.47
2019-02-21T19:17:18.734Z,3.90
2019-02-21T19:19:47.788Z,3.20
2019-02-21T19:22:16.466Z,4.43
2019-02-21T19:24:45.070Z,3.30
2019-02-21T19:27:13.690Z,4.43
2019-02-21T19:29:42.327Z,5.07
2019-02-21T19:32:10.958Z,3.40
2019-02-21T19:34:39.558Z,3.77
2019-02-21T19:37:08.202Z,2.93
2019-02-21T19:39:36.803Z,2.67
2019-02-21T19:42:05.452Z,2.60
2019-02-21T19:44:34.031Z,2.73
2019-02-21T19:47:02.666Z,2.37
2019-02-21T19:49:31.354Z,2.87
2019-02-21T19:52:00.137Z,2.30
2019-02-21T19:54:28.799Z,2.50
2019-02-21T19:56:57.843Z,2.47
2019-02-21T19:59:26.504Z,2.57
2019-02-21T20:01:55.082Z,2.47
2019-02-21T20:04:35.385Z,2.60
2019-02-21T20:07:05.602Z,2.90
2019-02-21T20:09:34.356Z,2.80
2019-02-21T20:12:03.018Z,2.87
2019-02-21T20:14:31.764Z,2.17
2019-02-21T20:17:00.428Z,2.63
2019-02-21T20:19:28.928Z,2.07
2019-02-21T20:21:57.896Z,2.10
2019-02-21T20:24:26.557Z,1.90
2019-02-21T20:26:55.491Z,1.60
2019-02-21T20:29:24.107Z,1.57
2019-02-21T20:31:52.647Z,1.57
2019-02-21T20:34:21.427Z,2.20
2019-02-21T20:36:51.360Z,1.93
2019-02-21T20:39:18.839Z,1.67
2019-02-21T20:41:47.347Z,1.67
2019-02-21T20:44:16.357Z,2.07
2019-02-21T20:46:44.895Z,2.20
2019-02-21T20:49:13.903Z,2.23
2019-02-21T20:51:42.815Z,1.90
2019-02-21T20:54:12.961Z,1.72
2019-02-21T20:56:40.209Z,1.90
2019-02-21T20:59:08.914Z,1.93
2019-02-21T21:01:37.509Z,2.07
2019-02-21T21:04:06.971Z,1.97
2019-02-21T21:06:35.659Z,1.80
2019-02-21T21:09:05.419Z,1.97
2019-02-21T21:11:33.987Z,2.13
2019-02-21T21:14:02.838Z,1.73
2019-02-21T21:16:31.441Z,1.67
2019-02-21T21:19:00.038Z,2.00
2019-02-21T21:21:28.742Z,1.97
2019-02-21T21:23:57.297Z,1.60
2019-02-21T21:26:25.914Z,1.50
2019-02-21T21:28:54.560Z,1.80
2019-02-21T21:31:23.273Z,1.67
2019-02-21T21:33:51.958Z,1.50
2019-02-21T21:36:20.875Z,1.73
2019-02-21T21:38:54.065Z,1.73
2019-02-21T21:41:18.238Z,1.37
2019-02-21T21:43:47.118Z,2.40
2019-02-21T21:46:15.938Z,1.60
2019-02-21T21:48:44.597Z,1.80
2019-02-21T21:51:13.278Z,1.70
2019-02-21T21:53:42.073Z,1.67
2019-02-21T21:56:10.885Z,1.90
2019-02-21T21:58:40.113Z,1.60
2019-02-21T22:01:08.717Z,1.50
2019-02-21T22:03:37.437Z,1.80
2019-02-21T22:06:06.112Z,0.57
2019-02-21T22:08:34.651Z,1.37
2019-02-21T22:11:03.374Z,1.23
2019-02-21T22:13:32.380Z,1.50
2019-02-21T22:16:01.352Z,1.40
2019-02-21T22:18:30.099Z,1.30
2019-02-21T22:20:58.818Z,1.40
2019-02-21T22:23:27.818Z,1.70
2019-02-21T22:25:56.838Z,1.80
2019-02-21T22:28:26.455Z,1.60
2019-02-21T22:30:55.134Z,1.63
2019-02-21T22:33:26.258Z,1.67
2019-02-21T22:35:52.553Z,1.40
2019-02-21T22:38:21.234Z,1.60
2019-02-21T22:40:49.970Z,1.70
2019-02-21T22:43:18.705Z,1.53
2019-02-21T22:45:47.422Z,1.60
2019-02-21T22:48:16.140Z,1.70
2019-02-21T22:50:45.236Z,2.00
2019-02-21T22:53:14.197Z,1.60
2019-02-21T22:55:42.897Z,1.40
2019-02-21T22:58:11.869Z,2.00
2019-02-21T23:01:11.006Z,2.33
2019-02-21T23:03:46.129Z,2.10
2019-02-21T23:06:25.961Z,1.53
2019-02-21T23:08:55.020Z,1.87
2019-02-21T23:11:24.313Z,2.10
2019-02-21T23:13:53.125Z,2.03
2019-02-21T23:16:21.965Z,2.25
2019-02-21T23:18:50.740Z,2.10
2019-02-21T23:21:19.494Z,2.30
2019-02-21T23:23:48.217Z,2.60
2019-02-21T23:26:16.943Z,2.20
2019-02-21T23:28:46.069Z,1.83
2019-02-21T23:31:15.157Z,1.90
2019-02-21T23:33:47.803Z,2.20
2019-02-21T23:36:16.549Z,1.90
2019-02-21T23:38:45.789Z,1.73
2019-02-21T23:41:14.493Z,1.90
2019-02-21T23:43:43.832Z,1.93
2019-02-21T23:46:12.636Z,2.00
2019-02-21T23:48:41.321Z,2.20
2019-02-21T23:51:10.049Z,1.60
2019-02-21T23:53:39.102Z,1.90
2019-02-21T23:56:08.137Z,1.80
2019-02-21T23:58:37.690Z,1.80
